createdAt,value
2018-04-18T00:00:22.369Z,99114.42
2018-04-18T00:01:27.934Z,99115.19
2018-04-18T00:02:33.066Z,99114.83
2018-04-18T00:03:38.808Z,99116.62
2018-04-18T00:04:44.520Z,99118.58
2018-04-18T00:05:50.299Z,99117.78
2018-04-18T00:06:55.190Z,99119.25
2018-04-18T00:08:00.113Z,99117.27
2018-04-18T00:09:06.153Z,99121.30
2018-04-18T00:10:11.312Z,99122.29
2018-04-18T00:11:17.302Z,99120.12
2018-04-18T00:12:22.754Z,99123.58
2018-04-18T00:13:28.222Z,99121.16
2018-04-18T00:14:33.639Z,99129.14
2018-04-18T00:15:39.135Z,99128.22
2018-04-18T00:16:44.511Z,99127.97
2018-04-18T00:17:50.305Z,99129.37
2018-04-18T00:18:55.779Z,99126.47
2018-04-18T00:20:00.662Z,99127.70
2018-04-18T00:21:06.259Z,99129.36
2018-04-18T00:22:12.387Z,99126.20
2018-04-18T00:23:17.512Z,99129.23
2018-04-18T00:24:22.676Z,99127.83
2018-04-18T00:25:28.388Z,99124.52
2018-04-18T00:26:33.519Z,99128.95
2018-04-18T00:27:39.149Z,99133.70
2018-04-18T00:28:45.140Z,99135.31
2018-04-18T00:29:50.521Z,99136.77
2018-04-18T00:30:55.609Z,99130.89
2018-04-18T00:32:00.716Z,99128.48
2018-04-18T00:33:06.086Z,99138.00
2018-04-18T00:34:12.002Z,99134.56
2018-04-18T00:35:17.870Z,99139.42
2018-04-18T00:36:23.262Z,99130.55
2018-04-18T00:37:29.624Z,99137.22
2018-04-18T00:38:34.682Z,99136.75
2018-04-18T00:39:40.425Z,99134.20
2018-04-18T00:40:46.035Z,99140.02
2018-04-18T00:41:52.008Z,99135.06
2018-04-18T00:42:57.448Z,99138.83
2018-04-18T00:44:02.938Z,99143.18
2018-04-18T00:45:08.301Z,99139.43
2018-04-18T00:46:13.896Z,99146.92
2018-04-18T00:47:19.079Z,99143.27
2018-04-18T00:48:24.737Z,99142.83
2018-04-18T00:49:29.927Z,99145.22
2018-04-18T00:50:35.205Z,99142.09
2018-04-18T00:51:40.799Z,99150.58
2018-04-18T00:52:45.675Z,99144.69
2018-04-18T00:53:50.677Z,99146.62
2018-04-18T00:54:56.905Z,99149.41
2018-04-18T00:56:04.691Z,99145.73
2018-04-18T00:57:09.343Z,99146.44
2018-04-18T00:58:14.296Z,99139.11
2018-04-18T00:59:19.468Z,99143.81
2018-04-18T01:00:25.047Z,99143.72
2018-04-18T01:01:30.710Z,99145.48
2018-04-18T01:02:35.743Z,99148.88
2018-04-18T01:03:41.503Z,99146.74
2018-04-18T01:04:47.420Z,99146.71
2018-04-18T01:05:53.214Z,99145.76
2018-04-18T01:06:58.783Z,99144.09
2018-04-18T01:08:03.660Z,99147.88
2018-04-18T01:09:09.348Z,99142.75
2018-04-18T01:10:14.610Z,99141.41
2018-04-18T01:11:20.168Z,99145.02
2018-04-18T01:12:25.438Z,99149.09
2018-04-18T01:13:30.784Z,99149.42
2018-04-18T01:14:36.546Z,99147.83
2018-04-18T01:15:42.556Z,99148.27
2018-04-18T01:16:47.344Z,99149.12
2018-04-18T01:17:52.732Z,99149.61
2018-04-18T01:18:57.707Z,99150.05
2018-04-18T01:20:02.525Z,99153.58
2018-04-18T01:21:08.637Z,99147.24
2018-04-18T01:22:14.371Z,99153.77
2018-04-18T01:23:19.898Z,99149.83
2018-04-18T01:24:24.718Z,99149.22
2018-04-18T01:25:29.822Z,99144.02
2018-04-18T01:26:35.267Z,99149.43
2018-04-18T01:27:40.734Z,99143.44
2018-04-18T01:28:45.962Z,99148.34
2018-04-18T01:29:51.545Z,99147.63
2018-04-18T01:30:56.867Z,99149.70
2018-04-18T01:32:03.438Z,99153.08
2018-04-18T01:33:08.897Z,99151.67
2018-04-18T01:34:15.607Z,99151.14
2018-04-18T01:35:20.311Z,99153.55
2018-04-18T01:36:25.796Z,99151.75
2018-04-18T01:37:31.057Z,99152.44
2018-04-18T01:38:37.011Z,99153.70
2018-04-18T01:39:41.765Z,99157.08
2018-04-18T01:40:47.591Z,99160.10
2018-04-18T01:41:53.657Z,99155.34
2018-04-18T01:42:59.059Z,99155.44
2018-04-18T01:44:03.943Z,99159.97
2018-04-18T01:45:10.203Z,99161.80
2018-04-18T01:46:15.281Z,99153.77
2018-04-18T01:47:20.955Z,99153.95
2018-04-18T01:48:26.310Z,99154.80
2018-04-18T01:49:33.456Z,99157.61
2018-04-18T01:50:38.539Z,99156.36
2018-04-18T01:51:44.046Z,99158.17
2018-04-18T01:52:49.904Z,99157.98
2018-04-18T01:53:55.133Z,99156.44
2018-04-18T01:55:00.206Z,99154.07
2018-04-18T01:56:04.828Z,99152.29
2018-04-18T01:57:10.966Z,99156.92
2018-04-18T01:58:16.055Z,99159.00
2018-04-18T01:59:21.575Z,99161.97
2018-04-18T02:00:26.980Z,99161.69
2018-04-18T02:01:33.251Z,99162.59
2018-04-18T02:02:38.956Z,99162.34
2018-04-18T02:03:44.754Z,99160.78
2018-04-18T02:04:49.953Z,99160.53
2018-04-18T02:05:57.512Z,99162.83
2018-04-18T02:07:02.710Z,99163.31
2018-04-18T02:08:07.864Z,99160.08
2018-04-18T02:09:13.329Z,99163.08
2018-04-18T02:10:18.532Z,99158.92
2018-04-18T02:11:24.724Z,99162.64
2018-04-18T02:12:29.810Z,99155.39
2018-04-18T02:13:35.300Z,99158.80
2018-04-18T02:14:40.625Z,99165.92
2018-04-18T02:15:46.469Z,99168.66
2018-04-18T02:16:52.215Z,99166.07
2018-04-18T02:17:57.559Z,99162.92
2018-04-18T02:19:02.879Z,99168.17
2018-04-18T02:20:08.810Z,99168.27
2018-04-18T02:21:14.394Z,99177.48
2018-04-18T02:22:20.061Z,99179.67
2018-04-18T02:23:25.680Z,99174.94
2018-04-18T02:24:30.357Z,99181.97
2018-04-18T02:25:35.685Z,99183.52
2018-04-18T02:26:40.921Z,99179.15
2018-04-18T02:27:46.551Z,99176.34
2018-04-18T02:28:51.610Z,99178.77
2018-04-18T02:29:57.726Z,99177.70
2018-04-18T02:31:03.279Z,99186.83
2018-04-18T02:32:08.644Z,99178.98
2018-04-18T02:33:14.383Z,99180.16
2018-04-18T02:34:19.195Z,99183.69
2018-04-18T02:35:24.791Z,99185.13
2018-04-18T02:36:29.696Z,99181.94
2018-04-18T02:37:35.373Z,99184.70
2018-04-18T02:38:40.806Z,99185.22
2018-04-18T02:39:46.838Z,99180.73
2018-04-18T02:40:51.904Z,99185.42
2018-04-18T02:41:57.021Z,99184.14
2018-04-18T02:43:03.096Z,99185.30
2018-04-18T02:44:08.107Z,99186.14
2018-04-18T02:45:13.915Z,99185.27
2018-04-18T02:46:18.820Z,99181.98
2018-04-18T02:47:24.389Z,99179.19
2018-04-18T02:48:29.942Z,99181.69
2018-04-18T02:49:35.994Z,99185.25
2018-04-18T02:50:42.018Z,99180.20
2018-04-18T02:51:47.052Z,99179.50
2018-04-18T02:52:52.011Z,99184.34
2018-04-18T02:53:57.865Z,99177.30
2018-04-18T02:55:03.078Z,99182.77
2018-04-18T02:56:08.084Z,99180.63
2018-04-18T02:57:13.955Z,99183.87
2018-04-18T02:58:19.115Z,99181.09
2018-04-18T02:59:23.933Z,99178.14
2018-04-18T03:00:30.070Z,99179.67
2018-04-18T03:01:35.379Z,99179.67
2018-04-18T03:02:40.361Z,99181.42
2018-04-18T03:03:46.638Z,99182.45
2018-04-18T03:04:51.768Z,99182.92
2018-04-18T03:05:56.844Z,99180.73
2018-04-18T03:07:02.096Z,99188.64
2018-04-18T03:08:07.539Z,99186.88
2018-04-18T03:09:13.797Z,99189.10
2018-04-18T03:10:20.362Z,99188.30
2018-04-18T03:11:26.860Z,99189.08
2018-04-18T03:12:31.726Z,99186.09
2018-04-18T03:13:36.910Z,99186.75
2018-04-18T03:14:42.002Z,99188.16
2018-04-18T03:15:47.246Z,99190.12
2018-04-18T03:16:53.105Z,99193.30
2018-04-18T03:17:58.548Z,99190.28
2018-04-18T03:19:03.996Z,99190.28
2018-04-18T03:20:09.177Z,99188.94
2018-04-18T03:21:14.824Z,99192.70
2018-04-18T03:22:19.882Z,99189.42
2018-04-18T03:23:26.772Z,99190.73
2018-04-18T03:24:31.830Z,99190.91
2018-04-18T03:25:37.216Z,99197.16
2018-04-18T03:26:43.206Z,99197.20
2018-04-18T03:27:48.643Z,99194.13
2018-04-18T03:28:53.242Z,99194.77
2018-04-18T03:29:59.104Z,99195.48
2018-04-18T03:31:05.176Z,99202.44
2018-04-18T03:32:09.957Z,99201.59
2018-04-18T03:33:15.863Z,99200.30
2018-04-18T03:34:20.480Z,99204.52
2018-04-18T03:35:25.670Z,99202.59
2018-04-18T03:36:31.822Z,99206.37
2018-04-18T03:37:36.756Z,99204.83
2018-04-18T03:38:41.598Z,99206.27
2018-04-18T03:39:47.038Z,99206.25
2018-04-18T03:40:52.382Z,99212.58
2018-04-18T03:41:58.451Z,99210.40
2018-04-18T03:43:03.883Z,99215.02
2018-04-18T03:44:08.969Z,99213.91
2018-04-18T03:45:15.145Z,99212.73
2018-04-18T03:46:20.525Z,99213.55
2018-04-18T03:47:25.549Z,99212.67
2018-04-18T03:48:31.110Z,99216.87
2018-04-18T03:49:37.200Z,99211.53
2018-04-18T03:50:42.898Z,99217.88
2018-04-18T03:51:48.201Z,99217.76
2018-04-18T03:52:53.209Z,99217.42
2018-04-18T03:53:58.191Z,99220.97
2018-04-18T03:55:04.188Z,99219.73
2018-04-18T03:56:10.791Z,99218.00
2018-04-18T03:57:15.749Z,99219.64
2018-04-18T03:58:21.686Z,99221.27
2018-04-18T03:59:26.498Z,99220.83
2018-04-18T04:00:34.901Z,99227.71
2018-04-18T04:01:39.887Z,99226.68
2018-04-18T04:02:44.836Z,99225.47
2018-04-18T04:03:49.669Z,99220.05
2018-04-18T04:04:55.702Z,99227.30
2018-04-18T04:06:00.416Z,99224.37
2018-04-18T04:07:05.980Z,99227.93
2018-04-18T04:08:11.847Z,99224.25
2018-04-18T04:09:16.823Z,99225.00
2018-04-18T04:10:22.115Z,99225.55
2018-04-18T04:11:27.127Z,99222.63
2018-04-18T04:12:33.169Z,99229.41
2018-04-18T04:13:38.177Z,99230.80
2018-04-18T04:14:43.345Z,99227.38
2018-04-18T04:15:49.377Z,99223.94
2018-04-18T04:16:58.943Z,99226.37
2018-04-18T04:20:12.131Z,99228.75
2018-04-18T04:21:21.937Z,99229.40
2018-04-18T04:24:34.566Z,99224.83
2018-04-18T04:25:39.089Z,99232.55
2018-04-18T04:26:44.253Z,99232.73
2018-04-18T04:27:49.147Z,99232.98
2018-04-18T04:28:54.259Z,99238.17
2018-04-18T04:29:59.598Z,99238.15
2018-04-18T04:31:05.235Z,99236.14
2018-04-18T04:32:10.445Z,99236.94
2018-04-18T04:33:16.742Z,99237.02
2018-04-18T04:34:21.699Z,99239.23
2018-04-18T04:35:26.805Z,99240.02
2018-04-18T04:36:32.132Z,99241.91
2018-04-18T04:37:37.812Z,99236.30
2018-04-18T04:38:43.736Z,99239.27
2018-04-18T04:39:50.252Z,99250.08
2018-04-18T04:40:55.635Z,99244.60
2018-04-18T04:42:01.142Z,99242.44
2018-04-18T04:43:06.892Z,99244.53
2018-04-18T04:44:12.563Z,99242.50
2018-04-18T04:45:17.543Z,99245.42
2018-04-18T04:46:22.640Z,99247.34
2018-04-18T04:47:27.934Z,99247.59
2018-04-18T04:48:35.435Z,99246.02
2018-04-18T04:49:41.163Z,99255.84
2018-04-18T04:50:45.722Z,99252.57
2018-04-18T04:51:50.866Z,99254.90
2018-04-18T04:52:56.641Z,99253.86
2018-04-18T04:54:01.945Z,99254.09
2018-04-18T04:55:07.293Z,99262.63
2018-04-18T04:56:13.090Z,99259.13
2018-04-18T04:57:18.064Z,99257.13
2018-04-18T04:58:24.148Z,99266.20
2018-04-18T04:59:28.865Z,99261.28
2018-04-18T05:00:34.079Z,99265.94
2018-04-18T05:01:39.413Z,99270.45
2018-04-18T05:02:44.299Z,99259.59
2018-04-18T05:03:48.823Z,99263.88
2018-04-18T05:04:53.745Z,99265.25
2018-04-18T05:05:59.092Z,99263.73
2018-04-18T05:07:04.719Z,99269.19
2018-04-18T05:08:09.905Z,99265.91
2018-04-18T05:09:15.271Z,99268.69
2018-04-18T05:10:21.266Z,99264.63
2018-04-18T05:11:27.230Z,99269.75
2018-04-18T05:12:32.037Z,99269.30
2018-04-18T05:13:37.552Z,99275.30
2018-04-18T05:14:42.997Z,99272.61
2018-04-18T05:15:48.336Z,99278.08
2018-04-18T05:16:54.394Z,99278.11
2018-04-18T05:18:00.616Z,99277.47
2018-04-18T05:19:05.694Z,99277.30
2018-04-18T05:20:11.128Z,99281.16
2018-04-18T05:21:17.222Z,99285.36
2018-04-18T05:22:22.363Z,99280.44
2018-04-18T05:23:27.396Z,99276.78
2018-04-18T05:24:32.107Z,99278.56
2018-04-18T05:25:36.714Z,99287.41
2018-04-18T05:26:41.216Z,99282.15
2018-04-18T05:27:45.758Z,99284.57
2018-04-18T05:28:50.418Z,99290.80
2018-04-18T05:29:55.718Z,99287.47
2018-04-18T05:31:00.482Z,99289.56
2018-04-18T05:32:05.063Z,99291.97
2018-04-18T05:33:09.585Z,99292.00
2018-04-18T05:34:14.108Z,99294.98
2018-04-18T05:35:19.198Z,99294.50
2018-04-18T05:36:23.950Z,99295.47
2018-04-18T05:37:28.555Z,99298.90
2018-04-18T05:38:33.065Z,99293.95
2018-04-18T05:39:37.638Z,99299.03
2018-04-18T05:40:42.196Z,99303.34
2018-04-18T05:41:48.012Z,99308.81
2018-04-18T05:42:52.500Z,99306.09
2018-04-18T05:43:57.132Z,99305.16
2018-04-18T05:45:01.730Z,99313.81
2018-04-18T05:46:06.406Z,99309.28
2018-04-18T05:47:11.060Z,99309.63
2018-04-18T05:48:16.157Z,99308.58
2018-04-18T05:49:21.066Z,99314.93
2018-04-18T05:50:27.386Z,99316.45
2018-04-18T05:51:33.396Z,99320.36
2018-04-18T05:52:38.590Z,99319.09
2018-04-18T05:53:44.587Z,99319.16
2018-04-18T05:54:50.465Z,99321.65
2018-04-18T05:55:55.519Z,99322.95
2018-04-18T05:57:00.914Z,99320.37
2018-04-18T05:58:07.005Z,99323.84
2018-04-18T05:59:12.857Z,99327.45
2018-04-18T06:00:19.063Z,99329.97
2018-04-18T06:01:24.776Z,99329.19
2018-04-18T06:02:30.440Z,99328.28
2018-04-18T06:03:36.104Z,99324.59
2018-04-18T06:04:41.057Z,99329.06
2018-04-18T06:05:46.025Z,99331.80
2018-04-18T06:06:51.564Z,99328.27
2018-04-18T06:07:57.105Z,99328.50
2018-04-18T06:09:02.766Z,99331.91
2018-04-18T06:10:08.007Z,99331.97
2018-04-18T06:11:12.994Z,99329.06
2018-04-18T06:12:18.690Z,99337.34
2018-04-18T06:13:24.161Z,99334.90
2018-04-18T06:14:30.310Z,99332.17
2018-04-18T06:15:35.988Z,99337.78
2018-04-18T06:16:41.882Z,99337.88
2018-04-18T06:17:47.009Z,99341.36
2018-04-18T06:18:53.072Z,99343.38
2018-04-18T06:19:59.941Z,99335.73
2018-04-18T06:21:05.064Z,99336.91
2018-04-18T06:22:11.584Z,99342.02
2018-04-18T06:23:17.071Z,99341.21
2018-04-18T06:24:22.040Z,99341.33
2018-04-18T06:25:27.446Z,99339.63
2018-04-18T06:26:33.124Z,99338.33
2018-04-18T06:27:38.716Z,99341.31
2018-04-18T06:28:43.484Z,99344.95
2018-04-18T06:29:49.152Z,99340.56
2018-04-18T06:30:54.340Z,99346.74
2018-04-18T06:32:00.421Z,99338.76
2018-04-18T06:33:06.047Z,99338.28
2018-04-18T06:34:10.665Z,99344.69
2018-04-18T06:35:15.367Z,99341.47
2018-04-18T06:36:20.012Z,99342.03
2018-04-18T06:37:25.261Z,99344.69
2018-04-18T06:38:30.141Z,99349.44
2018-04-18T06:39:35.817Z,99348.63
2018-04-18T06:40:41.046Z,99350.06
2018-04-18T06:41:46.340Z,99346.83
2018-04-18T06:42:51.867Z,99350.27
2018-04-18T06:43:57.196Z,99354.55
2018-04-18T06:45:03.791Z,99346.59
2018-04-18T06:46:09.532Z,99353.12
2018-04-18T06:47:14.074Z,99348.28
2018-04-18T06:48:18.656Z,99352.22
2018-04-18T06:49:23.842Z,99355.22
2018-04-18T06:50:28.886Z,99355.47
2018-04-18T06:51:34.039Z,99349.56
2018-04-18T06:52:39.352Z,99354.47
2018-04-18T06:53:44.182Z,99353.91
2018-04-18T06:54:49.019Z,99357.02
2018-04-18T06:55:57.301Z,99356.50
2018-04-18T06:57:02.024Z,99359.44
2018-04-18T06:58:07.168Z,99361.95
2018-04-18T06:59:12.995Z,99357.84
2018-04-18T07:00:17.891Z,99361.46
2018-04-18T07:01:23.404Z,99360.31
2018-04-18T07:02:29.227Z,99362.58
2018-04-18T07:03:34.598Z,99361.11
2018-04-18T07:04:40.588Z,99365.80
2018-04-18T07:05:45.249Z,99363.86
2018-04-18T07:06:50.638Z,99365.88
2018-04-18T07:07:56.090Z,99370.20
2018-04-18T07:09:01.516Z,99373.38
2018-04-18T07:10:07.098Z,99370.84
2018-04-18T07:11:12.697Z,99368.48
2018-04-18T07:12:17.997Z,99367.28
2018-04-18T07:13:23.287Z,99367.89
2018-04-18T07:14:28.014Z,99364.41
2018-04-18T07:15:33.510Z,99368.83
2018-04-18T07:16:40.092Z,99363.13
2018-04-18T07:17:44.830Z,99367.44
2018-04-18T07:18:49.533Z,99367.04
2018-04-18T07:19:54.177Z,99365.70
2018-04-18T07:20:59.633Z,99365.18
2018-04-18T07:22:04.517Z,99366.30
2018-04-18T07:23:10.441Z,99367.29
2018-04-18T07:24:15.344Z,99368.84
2018-04-18T07:25:20.971Z,99370.73
2018-04-18T07:26:26.413Z,99372.73
2018-04-18T07:27:32.390Z,99375.68
2018-04-18T07:28:41.531Z,99375.24
2018-04-18T07:29:46.017Z,99375.20
2018-04-18T07:30:50.507Z,99375.20
2018-04-18T07:31:55.621Z,99383.08
2018-04-18T07:33:00.460Z,99383.27
2018-04-18T07:34:06.503Z,99378.00
2018-04-18T07:35:11.999Z,99380.96
2018-04-18T07:36:17.057Z,99387.69
2018-04-18T07:37:22.181Z,99383.55
2018-04-18T07:38:28.277Z,99378.59
2018-04-18T07:39:34.168Z,99380.52
2018-04-18T07:40:39.405Z,99383.47
2018-04-18T07:41:44.235Z,99379.39
2018-04-18T07:42:49.655Z,99381.04
2018-04-18T07:43:54.729Z,99385.80
2018-04-18T07:44:59.712Z,99384.66
2018-04-18T07:46:04.520Z,99381.25
2018-04-18T07:47:10.263Z,99387.55
2018-04-18T07:48:16.541Z,99388.54
2018-04-18T07:49:22.151Z,99390.82
2018-04-18T07:50:27.425Z,99392.13
2018-04-18T07:51:33.499Z,99393.58
2018-04-18T07:52:38.401Z,99390.27
2018-04-18T07:53:44.324Z,99393.06
2018-04-18T07:54:49.829Z,99390.25
2018-04-18T07:55:54.519Z,99390.02
2018-04-18T07:57:00.136Z,99391.95
2018-04-18T07:58:05.000Z,99382.45
2018-04-18T07:59:10.929Z,99387.20
2018-04-18T08:00:16.762Z,99392.47
2018-04-18T08:01:21.484Z,99391.20
2018-04-18T08:02:27.139Z,99394.67
2018-04-18T08:03:34.488Z,99391.56
2018-04-18T08:04:39.188Z,99399.23
2018-04-18T08:05:44.751Z,99395.84
2018-04-18T08:06:50.182Z,99393.56
2018-04-18T08:07:55.782Z,99405.05
2018-04-18T08:09:00.826Z,99398.42
2018-04-18T08:10:06.225Z,99401.66
2018-04-18T08:11:12.148Z,99401.30
2018-04-18T08:12:17.462Z,99402.93
2018-04-18T08:13:23.386Z,99403.41
2018-04-18T08:14:28.612Z,99403.02
2018-04-18T08:15:33.770Z,99398.30
2018-04-18T08:16:39.647Z,99403.59
2018-04-18T08:17:45.265Z,99401.86
2018-04-18T08:18:50.554Z,99402.19
2018-04-18T08:19:56.085Z,99400.77
2018-04-18T08:21:01.557Z,99403.67
2018-04-18T08:22:07.955Z,99407.52
2018-04-18T08:23:13.637Z,99404.56
2018-04-18T08:24:18.416Z,99403.69
2018-04-18T08:25:24.848Z,99402.36
2018-04-18T08:26:30.475Z,99410.52
2018-04-18T08:27:35.517Z,99411.13
2018-04-18T08:28:40.832Z,99410.77
2018-04-18T08:29:47.397Z,99412.77
2018-04-18T08:30:53.039Z,99404.80
2018-04-18T08:31:58.253Z,99404.31
2018-04-18T08:33:04.480Z,99410.62
2018-04-18T08:34:09.677Z,99407.73
2018-04-18T08:35:16.314Z,99417.42
2018-04-18T08:36:21.043Z,99415.70
2018-04-18T08:37:26.643Z,99413.48
2018-04-18T08:38:31.717Z,99416.39
2018-04-18T08:39:37.631Z,99414.14
2018-04-18T08:40:42.568Z,99415.79
2018-04-18T08:41:48.742Z,99414.81
2018-04-18T08:42:53.833Z,99415.25
2018-04-18T08:43:58.876Z,99417.76
2018-04-18T08:45:04.695Z,99414.10
2018-04-18T08:46:11.059Z,99410.16
2018-04-18T08:47:16.513Z,99414.13
2018-04-18T08:48:21.529Z,99409.47
2018-04-18T08:49:27.053Z,99411.39
2018-04-18T08:50:32.479Z,99413.80
2018-04-18T08:51:37.554Z,99411.98
2018-04-18T08:52:43.958Z,99406.56
2018-04-18T08:53:49.284Z,99405.94
2018-04-18T08:54:55.172Z,99413.33
2018-04-18T08:55:59.872Z,99402.97
2018-04-18T08:57:05.850Z,99404.17
2018-04-18T08:58:10.602Z,99407.02
2018-04-18T08:59:16.339Z,99405.47
2018-04-18T09:00:22.953Z,99404.98
2018-04-18T09:01:28.512Z,99404.31
2018-04-18T09:02:34.212Z,99401.69
2018-04-18T09:03:38.850Z,99395.41
2018-04-18T09:04:43.768Z,99399.09
2018-04-18T09:05:49.322Z,99405.30
2018-04-18T09:06:54.212Z,99399.32
2018-04-18T09:07:59.967Z,99400.47
2018-04-18T09:09:05.507Z,99398.12
2018-04-18T09:10:11.212Z,99400.14
2018-04-18T09:11:16.852Z,99398.11
2018-04-18T09:12:22.627Z,99398.89
2018-04-18T09:13:27.304Z,99401.08
2018-04-18T09:14:32.596Z,99401.36
2018-04-18T09:15:37.826Z,99397.41
2018-04-18T09:16:42.504Z,99400.00
2018-04-18T09:17:47.039Z,99396.34
2018-04-18T09:18:52.030Z,99398.30
2018-04-18T09:19:56.629Z,99395.00
2018-04-18T09:21:01.610Z,99402.06
2018-04-18T09:22:06.133Z,99395.33
2018-04-18T09:23:10.699Z,99398.95
2018-04-18T09:24:15.315Z,99396.34
2018-04-18T09:25:20.785Z,99393.18
2018-04-18T09:26:27.588Z,99398.37
2018-04-18T09:27:32.205Z,99394.85
2018-04-18T09:28:36.829Z,99392.17
2018-04-18T09:29:42.596Z,99391.95
2018-04-18T09:30:47.173Z,99398.75
2018-04-18T09:31:51.808Z,99396.05
2018-04-18T09:32:56.448Z,99387.58
2018-04-18T09:34:01.049Z,99384.40
2018-04-18T09:35:05.614Z,99390.48
2018-04-18T09:36:10.284Z,99392.79
2018-04-18T09:37:15.331Z,99384.95
2018-04-18T09:38:19.950Z,99388.05
2018-04-18T09:39:24.564Z,99387.86
2018-04-18T09:40:29.130Z,99384.93
2018-04-18T09:41:33.859Z,99392.69
2018-04-18T09:42:38.466Z,99389.22
2018-04-18T09:43:43.390Z,99389.15
2018-04-18T09:44:47.966Z,99385.38
2018-04-18T09:45:52.588Z,99383.67
2018-04-18T09:46:57.220Z,99388.05
2018-04-18T09:48:01.848Z,99383.77
2018-04-18T09:49:06.425Z,99388.37
2018-04-18T09:50:11.310Z,99387.64
2018-04-18T09:51:15.907Z,99387.16
2018-04-18T09:52:20.449Z,99390.70
2018-04-18T09:53:25.143Z,99385.03
2018-04-18T09:54:29.858Z,99390.38
2018-04-18T09:55:34.476Z,99392.95
2018-04-18T09:56:39.825Z,99389.89
2018-04-18T09:57:44.689Z,99390.96
2018-04-18T09:58:49.534Z,99387.78
2018-04-18T09:59:54.183Z,99389.41
2018-04-18T10:00:58.913Z,99384.17
2018-04-18T10:02:07.534Z,99386.98
2018-04-18T10:03:15.686Z,99390.59
2018-04-18T10:04:24.253Z,99384.78
2018-04-18T10:05:28.755Z,99390.83
2018-04-18T10:06:33.339Z,99388.23
2018-04-18T10:07:38.493Z,99393.09
2018-04-18T10:08:43.547Z,99390.34
2018-04-18T10:09:48.119Z,99393.73
2018-04-18T10:10:52.846Z,99390.70
2018-04-18T10:11:57.405Z,99387.64
2018-04-18T10:13:02.332Z,99381.57
2018-04-18T10:14:07.279Z,99383.34
2018-04-18T10:15:11.930Z,99384.79
2018-04-18T10:16:16.560Z,99386.17
2018-04-18T10:17:21.173Z,99386.79
2018-04-18T10:18:25.800Z,99391.11
2018-04-18T10:19:32.104Z,99391.27
2018-04-18T10:20:38.332Z,99392.96
2018-04-18T10:21:44.848Z,99390.48
2018-04-18T10:22:51.282Z,99394.48
2018-04-18T10:23:56.517Z,99391.01
2018-04-18T10:25:03.127Z,99391.60
2018-04-18T10:26:09.324Z,99391.84
2018-04-18T10:27:15.197Z,99389.64
2018-04-18T10:28:20.095Z,99389.96
2018-04-18T10:29:25.131Z,99383.42
2018-04-18T10:30:31.005Z,99389.32
2018-04-18T10:31:40.007Z,99392.50
2018-04-18T10:32:44.627Z,99386.81
2018-04-18T10:33:49.233Z,99389.91
2018-04-18T10:34:53.822Z,99382.81
2018-04-18T10:35:59.298Z,99385.22
2018-04-18T10:37:04.999Z,99385.94
2018-04-18T10:38:10.398Z,99380.86
2018-04-18T10:39:16.090Z,99380.68
2018-04-18T10:40:21.530Z,99377.23
2018-04-18T10:41:26.895Z,99381.89
2018-04-18T10:42:31.591Z,99377.20
2018-04-18T10:43:37.065Z,99380.84
2018-04-18T10:44:42.889Z,99375.05
2018-04-18T10:45:48.058Z,99381.66
2018-04-18T10:46:53.873Z,99368.17
2018-04-18T10:47:59.057Z,99380.02
2018-04-18T10:49:05.189Z,99377.28
2018-04-18T10:50:10.369Z,99374.25
2018-04-18T10:51:16.217Z,99364.12
2018-04-18T10:52:21.738Z,99368.44
2018-04-18T10:53:26.867Z,99366.77
2018-04-18T10:54:32.727Z,99368.09
2018-04-18T10:55:37.870Z,99361.83
2018-04-18T10:56:43.705Z,99360.95
2018-04-18T10:57:49.275Z,99357.91
2018-04-18T10:58:54.166Z,99357.10
2018-04-18T11:00:02.085Z,99366.25
2018-04-18T11:01:06.690Z,99370.42
2018-04-18T11:02:11.230Z,99364.87
2018-04-18T11:03:16.992Z,99360.78
2018-04-18T11:04:21.891Z,99360.39
2018-04-18T11:05:26.798Z,99365.98
2018-04-18T11:06:32.358Z,99364.65
2018-04-18T11:07:37.305Z,99364.14
2018-04-18T11:08:43.913Z,99364.08
2018-04-18T11:09:49.020Z,99356.81
2018-04-18T11:10:54.071Z,99354.33
2018-04-18T11:11:59.606Z,99358.11
2018-04-18T11:13:05.361Z,99365.57
2018-04-18T11:14:10.617Z,99351.22
2018-04-18T11:15:15.971Z,99352.01
2018-04-18T11:16:21.807Z,99360.89
2018-04-18T11:17:27.442Z,99344.23
2018-04-18T11:18:32.982Z,99343.69
2018-04-18T11:19:38.894Z,99349.27
2018-04-18T11:20:43.712Z,99350.43
2018-04-18T11:21:49.018Z,99349.08
2018-04-18T11:22:54.708Z,99342.43
2018-04-18T11:23:59.594Z,99347.34
2018-04-18T11:25:05.852Z,99340.77
2018-04-18T11:26:11.759Z,99346.03
2018-04-18T11:27:17.311Z,99347.98
2018-04-18T11:28:22.463Z,99350.84
2018-04-18T11:29:27.344Z,99355.14
2018-04-18T11:30:32.358Z,99350.67
2018-04-18T11:31:39.186Z,99345.69
2018-04-18T11:32:44.559Z,99338.55
2018-04-18T11:33:49.748Z,99342.81
2018-04-18T11:34:54.442Z,99345.77
2018-04-18T11:36:00.263Z,99347.48
2018-04-18T11:37:05.731Z,99349.16
2018-04-18T11:38:11.241Z,99341.52
2018-04-18T11:39:20.623Z,99342.81
2018-04-18T11:40:25.662Z,99341.29
2018-04-18T11:41:30.195Z,99329.00
2018-04-18T11:42:34.802Z,99334.89
2018-04-18T11:43:39.572Z,99334.13
2018-04-18T11:44:45.164Z,99338.48
2018-04-18T11:45:49.915Z,99339.51
2018-04-18T11:46:55.824Z,99334.25
2018-04-18T11:48:02.774Z,99329.63
2018-04-18T11:49:07.472Z,99334.83
2018-04-18T11:50:13.311Z,99327.64
2018-04-18T11:51:18.958Z,99330.38
2018-04-18T11:52:24.396Z,99333.62
2018-04-18T11:53:29.134Z,99325.77
2018-04-18T11:54:34.752Z,99328.00
2018-04-18T11:55:40.925Z,99326.62
2018-04-18T11:56:46.457Z,99328.70
2018-04-18T11:57:51.337Z,99340.00
2018-04-18T11:58:56.274Z,99333.33
2018-04-18T12:00:01.040Z,99334.10
2018-04-18T12:01:06.125Z,99330.27
2018-04-18T12:02:11.765Z,99320.91
2018-04-18T12:03:17.828Z,99331.27
2018-04-18T12:04:23.114Z,99328.80
2018-04-18T12:05:28.888Z,99333.30
2018-04-18T12:06:35.162Z,99331.19
2018-04-18T12:07:40.157Z,99330.86
2018-04-18T12:08:45.684Z,99325.29
2018-04-18T12:09:51.840Z,99327.77
2018-04-18T12:10:57.546Z,99326.95
2018-04-18T12:12:02.369Z,99335.16
2018-04-18T12:13:07.609Z,99332.29
2018-04-18T12:14:13.458Z,99326.80
2018-04-18T12:15:18.945Z,99324.77
2018-04-18T12:16:25.057Z,99326.23
2018-04-18T12:17:31.199Z,99325.81
2018-04-18T12:18:37.091Z,99328.42
2018-04-18T12:19:42.559Z,99327.97
2018-04-18T12:20:47.453Z,99327.91
2018-04-18T12:21:53.803Z,99334.88
2018-04-18T12:22:58.999Z,99329.38
2018-04-18T12:24:05.378Z,99321.84
2018-04-18T12:25:11.034Z,99323.08
2018-04-18T12:26:15.685Z,99330.66
2018-04-18T12:27:21.286Z,99322.08
2018-04-18T12:28:27.497Z,99323.27
2018-04-18T12:29:32.193Z,99327.84
2018-04-18T12:30:37.055Z,99325.49
2018-04-18T12:31:42.287Z,99325.87
2018-04-18T12:32:47.707Z,99323.84
2018-04-18T12:33:53.826Z,99326.62
2018-04-18T12:34:58.420Z,99326.48
2018-04-18T12:36:03.833Z,99326.12
2018-04-18T12:37:08.512Z,99329.36
2018-04-18T12:38:13.180Z,99327.95
2018-04-18T12:39:18.027Z,99326.20
2018-04-18T12:40:23.192Z,99328.08
2018-04-18T12:41:27.911Z,99319.27
2018-04-18T12:42:32.561Z,99322.05
2018-04-18T12:43:40.285Z,99322.50
2018-04-18T12:44:45.133Z,99327.23
2018-04-18T12:45:52.959Z,99316.02
2018-04-18T12:46:58.121Z,99319.23
2018-04-18T12:48:02.779Z,99317.55
2018-04-18T12:49:08.087Z,99321.89
2018-04-18T12:50:12.717Z,99316.31
2018-04-18T12:51:17.312Z,99318.27
2018-04-18T12:52:22.503Z,99315.95